sensor_id;sensor_type;location;lat;lon;timestamp;pressure;altitude;pressure_sealevel;temperature;humidity
76866;BME280;66647;52.124;5.416;2024-02-15T00:02:23;101751.03;;;10.94;100.00
76866;BME280;66647;52.124;5.416;2024-02-15T00:04:49;101751.03;;;10.94;100.00
76866;BME280;66647;52.124;5.416;2024-02-15T00:07:16;101744.22;;;10.92;100.00
76866;BME280;66647;52.124;5.416;2024-02-15T00:09:44;101749.72;;;10.92;100.00
76866;BME280;66647;52.124;5.416;2024-02-15T00:12:10;101744.53;;;10.90;100.00
76866;BME280;66647;52.124;5.416;2024-02-15T00:14:37;101741.78;;;10.90;100.00
76866;BME280;66647;52.124;5.416;2024-02-15T00:17:05;101743.72;;;10.90;100.00
76866;BME280;66647;52.124;5.416;2024-02-15T00:19:31;101739.34;;;10.89;100.00
76866;BME280;66647;52.124;5.416;2024-02-15T00:21:58;101736.59;;;10.89;100.00
76866;BME280;66647;52.124;5.416;2024-02-15T00:24:25;101742.38;;;10.87;100.00
76866;BME280;66647;52.124;5.416;2024-02-15T00:26:51;101747.56;;;10.89;100.00
76866;BME280;66647;52.124;5.416;2024-02-15T00:29:18;101754.19;;;10.88;100.00
76866;BME280;66647;52.124;5.416;2024-02-15T00:31:44;101747.88;;;10.87;100.00
76866;BME280;66647;52.124;5.416;2024-02-15T00:34:12;101747.88;;;10.87;100.00
76866;BME280;66647;52.124;5.416;2024-02-15T00:36:42;101755.28;;;10.87;100.00
76866;BME280;66647;52.124;5.416;2024-02-15T00:39:10;101745.44;;;10.86;100.00
76866;BME280;66647;52.124;5.416;2024-02-15T00:41:38;101743.19;;;10.88;100.00
76866;BME280;66647;52.124;5.416;2024-02-15T00:44:11;101748.69;;;10.88;100.00
76866;BME280;66647;52.124;5.416;2024-02-15T00:46:38;101737.72;;;10.88;100.00
76866;BME280;66647;52.124;5.416;2024-02-15T00:49:05;101737.72;;;10.88;100.00
76866;BME280;66647;52.124;5.416;2024-02-15T00:51:35;101737.72;;;10.88;100.00
76866;BME280;66647;52.124;5.416;2024-02-15T00:54:02;101734.16;;;10.87;100.00
76866;BME280;66647;52.124;5.416;2024-02-15T00:56:32;101731.41;;;10.87;100.00
76866;BME280;66647;52.124;5.416;2024-02-15T00:59:00;101727.03;;;10.86;100.00
76866;BME280;66647;52.124;5.416;2024-02-15T01:01:35;101726.22;;;10.86;100.00
76866;BME280;66647;52.124;5.416;2024-02-15T01:04:04;101728.66;;;10.87;100.00
76866;BME280;66647;52.124;5.416;2024-02-15T01:06:32;101730.59;;;10.87;100.00
76866;BME280;66647;52.124;5.416;2024-02-15T01:09:00;101723.50;;;10.86;100.00
76866;BME280;66647;52.124;5.416;2024-02-15T01:11:30;101722.69;;;10.85;100.00
76866;BME280;66647;52.124;5.416;2024-02-15T01:14:01;101728.16;;;10.85;100.00
76866;BME280;66647;52.124;5.416;2024-02-15T01:16:27;101735.56;;;10.85;100.00
76866;BME280;66647;52.124;5.416;2024-02-15T01:18:55;101736.41;;;10.85;100.00
76866;BME280;66647;52.124;5.416;2024-02-15T01:21:21;101728.16;;;10.85;100.00
76866;BME280;66647;52.124;5.416;2024-02-15T01:23:51;101724.31;;;10.86;100.00
76866;BME280;66647;52.124;5.416;2024-02-15T01:26:20;101719.94;;;10.85;100.00
76866;BME280;66647;52.124;5.416;2024-02-15T01:28:46;101720.75;;;10.86;100.00
76866;BME280;66647;52.124;5.416;2024-02-15T01:31:13;101719.13;;;10.85;100.00
76866;BME280;66647;52.124;5.416;2024-02-15T01:33:44;101716.38;;;10.85;100.00
76866;BME280;66647;52.124;5.416;2024-02-15T01:36:15;101721.84;;;10.85;100.00
76866;BME280;66647;52.124;5.416;2024-02-15T01:38:43;101717.19;;;10.85;100.00
76866;BME280;66647;52.124;5.416;2024-02-15T01:41:10;101716.38;;;10.85;100.00
76866;BME280;66647;52.124;5.416;2024-02-15T01:43:37;101719.13;;;10.85;100.00
76866;BME280;66647;52.124;5.416;2024-02-15T01:46:10;101717.50;;;10.84;100.00
76866;BME280;66647;52.124;5.416;2024-02-15T01:48:37;101716.38;;;10.85;100.00
76866;BME280;66647;52.124;5.416;2024-02-15T01:51:07;101719.13;;;10.85;100.00
76866;BME280;66647;52.124;5.416;2024-02-15T01:53:34;101727.03;;;10.86;100.00
76866;BME280;66647;52.124;5.416;2024-02-15T01:56:01;101719.63;;;10.87;100.00
76866;BME280;66647;52.124;5.416;2024-02-15T01:58:29;101714.13;;;10.87;100.00
76866;BME280;66647;52.124;5.416;2024-02-15T02:00:59;101719.31;;;10.88;100.00
76866;BME280;66647;52.124;5.416;2024-02-15T02:03:26;101705.59;;;10.88;100.00
76866;BME280;66647;52.124;5.416;2024-02-15T02:05:54;101703.66;;;10.89;100.00
76866;BME280;66647;52.124;5.416;2024-02-15T02:08:21;101693.81;;;10.88;100.00
76866;BME280;66647;52.124;5.416;2024-02-15T02:10:51;101694.13;;;10.86;100.00
76866;BME280;66647;52.124;5.416;2024-02-15T02:13:20;101693.81;;;10.88;100.00
76866;BME280;66647;52.124;5.416;2024-02-15T02:15:46;101694.94;;;10.87;100.00
76866;BME280;66647;52.124;5.416;2024-02-15T02:18:13;101693.81;;;10.88;100.00
76866;BME280;66647;52.124;5.416;2024-02-15T02:20:42;101696.56;;;10.88;100.00
76866;BME280;66647;52.124;5.416;2024-02-15T02:23:16;101686.69;;;10.87;100.00
76866;BME280;66647;52.124;5.416;2024-02-15T02:25:45;101688.13;;;10.84;100.00
76866;BME280;66647;52.124;5.416;2024-02-15T02:28:15;101688.13;;;10.84;100.00
76866;BME280;66647;52.124;5.416;2024-02-15T02:30:43;101684.88;;;10.82;100.00
76866;BME280;66647;52.124;5.416;2024-02-15T02:33:12;101689.53;;;10.82;100.00
76866;BME280;66647;52.124;5.416;2024-02-15T02:35:46;101675.81;;;10.82;100.00
76866;BME280;66647;52.124;5.416;2024-02-15T02:38:14;101674.81;;;10.77;100.00
76866;BME280;66647;52.124;5.416;2024-02-15T02:40:41;101671.56;;;10.75;100.00
76866;BME280;66647;52.124;5.416;2024-02-15T02:43:08;101672.69;;;10.74;100.00
76866;BME280;66647;52.124;5.416;2024-02-15T02:45:35;101674.91;;;10.72;100.00
76866;BME280;66647;52.124;5.416;2024-02-15T02:48:01;101686.53;;;10.69;100.00
76866;BME280;66647;52.124;5.416;2024-02-15T02:50:28;101680.22;;;10.69;100.00
76866;BME280;66647;52.124;5.416;2024-02-15T02:52:55;101689.78;;;10.71;100.00
76866;BME280;66647;52.124;5.416;2024-02-15T02:55:22;101679.63;;;10.72;100.00
76866;BME280;66647;52.124;5.416;2024-02-15T02:57:49;101670.88;;;10.70;100.00
76866;BME280;66647;52.124;5.416;2024-02-15T03:00:16;101673.13;;;10.68;100.00
76866;BME280;66647;52.124;5.416;2024-02-15T03:02:44;101677.50;;;10.69;100.00
76866;BME280;66647;52.124;5.416;2024-02-15T03:05:11;101672.31;;;10.67;100.00
76866;BME280;66647;52.124;5.416;2024-02-15T03:07:39;101677.78;;;10.67;100.00
76866;BME280;66647;52.124;5.416;2024-02-15T03:10:09;101673.94;;;10.68;100.00
76866;BME280;66647;52.124;5.416;2024-02-15T03:12:41;101672.81;;;10.69;100.00
76866;BME280;66647;52.124;5.416;2024-02-15T03:15:13;101677.78;;;10.67;100.00
76866;BME280;66647;52.124;5.416;2024-02-15T03:17:41;101668.75;;;10.67;100.00
76866;BME280;66647;52.124;5.416;2024-02-15T03:20:09;101675.84;;;10.68;100.00
76866;BME280;66647;52.124;5.416;2024-02-15T03:22:57;101666.81;;;10.67;100.00
76866;BME280;66647;52.124;5.416;2024-02-15T03:25:25;101666.81;;;10.67;100.00
76866;BME280;66647;52.124;5.416;2024-02-15T03:27:53;101662.97;;;10.68;100.00
76866;BME280;66647;52.124;5.416;2024-02-15T03:30:22;101665.69;;;10.68;100.00
76866;BME280;66647;52.124;5.416;2024-02-15T03:32:50;101666.00;;;10.67;100.00
76866;BME280;66647;52.124;5.416;2024-02-15T03:35:22;101658.91;;;10.66;100.00
76866;BME280;66647;52.124;5.416;2024-02-15T03:37:49;101655.34;;;10.65;100.00
76866;BME280;66647;52.124;5.416;2024-02-15T03:40:19;101657.28;;;10.65;100.00
76866;BME280;66647;52.124;5.416;2024-02-15T03:42:47;101650.97;;;10.64;100.00
76866;BME280;66647;52.124;5.416;2024-02-15T03:45:13;101661.13;;;10.64;100.00
76866;BME280;66647;52.124;5.416;2024-02-15T03:47:40;101657.88;;;10.62;100.00
76866;BME280;66647;52.124;5.416;2024-02-15T03:50:08;101660.94;;;10.60;100.00
76866;BME280;66647;52.124;5.416;2024-02-15T03:52:38;101660.94;;;10.60;100.00
76866;BME280;66647;52.124;5.416;2024-02-15T03:55:05;101659.31;;;10.59;100.00
76866;BME280;66647;52.124;5.416;2024-02-15T03:57:33;101662.34;;;10.58;100.00
76866;BME280;66647;52.124;5.416;2024-02-15T04:00:00;101665.41;;;10.56;100.00
76866;BME280;66647;52.124;5.416;2024-02-15T04:02:35;101656.06;;;10.57;100.00
76866;BME280;66647;52.124;5.416;2024-02-15T04:05:02;101658.28;;;10.55;100.00
76866;BME280;66647;52.124;5.416;2024-02-15T04:07:31;101647.31;;;10.55;100.00
76866;BME280;66647;52.124;5.416;2024-02-15T04:09:57;101641.84;;;10.55;100.00
76866;BME280;66647;52.124;5.416;2024-02-15T04:12:25;101652.81;;;10.55;100.00
76866;BME280;66647;52.124;5.416;2024-02-15T04:14:54;101648.94;;;10.56;100.00
76866;BME280;66647;52.124;5.416;2024-02-15T04:17:21;101647.00;;;10.57;100.00
76866;BME280;66647;52.124;5.416;2024-02-15T04:19:48;101653.81;;;10.59;100.00
76866;BME280;66647;52.124;5.416;2024-02-15T04:22:17;101654.94;;;10.58;100.00
76866;BME280;66647;52.124;5.416;2024-02-15T04:24:43;101655.75;;;10.59;100.00
76866;BME280;66647;52.124;5.416;2024-02-15T04:27:12;101647.22;;;10.60;100.00
76866;BME280;66647;52.124;5.416;2024-02-15T04:29:40;101645.28;;;10.61;100.00
76866;BME280;66647;52.124;5.416;2024-02-15T04:32:08;101641.41;;;10.62;100.00
76866;BME280;66647;52.124;5.416;2024-02-15T04:34:39;101649.34;;;10.63;100.00
76866;BME280;66647;52.124;5.416;2024-02-15T04:37:06;101637.25;;;10.64;100.00
76866;BME280;66647;52.124;5.416;2024-02-15T04:39:35;101641.63;;;10.65;100.00
76866;BME280;66647;52.124;5.416;2024-02-15T04:42:05;101642.44;;;10.66;100.00
76866;BME280;66647;52.124;5.416;2024-02-15T04:44:34;101643.25;;;10.66;100.00
76866;BME280;66647;52.124;5.416;2024-02-15T04:47:07;101641.00;;;10.68;100.00
76866;BME280;66647;52.124;5.416;2024-02-15T04:49:35;101635.53;;;10.68;100.00
76866;BME280;66647;52.124;5.416;2024-02-15T04:52:05;101638.28;;;10.68;100.00
76866;BME280;66647;52.124;5.416;2024-02-15T04:54:32;101635.53;;;10.68;100.00
76866;BME280;66647;52.124;5.416;2024-02-15T04:56:59;101635.53;;;10.68;100.00
76866;BME280;66647;52.124;5.416;2024-02-15T04:59:27;101627.31;;;10.68;100.00
76866;BME280;66647;52.124;5.416;2024-02-15T05:01:55;101623.44;;;10.69;100.00
76866;BME280;66647;52.124;5.416;2024-02-15T05:04:25;101619.88;;;10.69;100.00
76866;BME280;66647;52.124;5.416;2024-02-15T05:06:52;101613.28;;;10.70;100.00
76866;BME280;66647;52.124;5.416;2024-02-15T05:09:20;101619.56;;;10.70;100.00
76866;BME280;66647;52.124;5.416;2024-02-15T05:11:46;101616.03;;;10.70;100.00
76866;BME280;66647;52.124;5.416;2024-02-15T05:14:14;101622.31;;;10.70;100.00
76866;BME280;66647;52.124;5.416;2024-02-15T05:16:46;101627.00;;;10.70;100.00
76866;BME280;66647;52.124;5.416;2024-02-15T05:19:15;101626.69;;;10.71;100.00
76866;BME280;66647;52.124;5.416;2024-02-15T05:21:46;101636.50;;;10.72;100.00
76866;BME280;66647;52.124;5.416;2024-02-15T05:24:13;101632.66;;;10.73;100.00
76866;BME280;66647;52.124;5.416;2024-02-15T05:26:42;101634.28;;;10.74;100.00
76866;BME280;66647;52.124;5.416;2024-02-15T05:29:10;101634.28;;;10.74;100.00
76866;BME280;66647;52.124;5.416;2024-02-15T05:31:37;101629.59;;;10.75;100.00
76866;BME280;66647;52.124;5.416;2024-02-15T05:34:05;101626.56;;;10.76;100.00
76866;BME280;66647;52.124;5.416;2024-02-15T05:36:34;101628.19;;;10.77;100.00
76866;BME280;66647;52.124;5.416;2024-02-15T05:39:01;101612.53;;;10.78;100.00
76866;BME280;66647;52.124;5.416;2024-02-15T05:41:29;101605.13;;;10.78;100.00
76866;BME280;66647;52.124;5.416;2024-02-15T05:43:56;101597.69;;;10.79;100.00
76866;BME280;66647;52.124;5.416;2024-02-15T05:46:24;101578.50;;;10.79;100.00
76866;BME280;66647;52.124;5.416;2024-02-15T05:48:51;101552.97;;;10.78;100.00
76866;BME280;66647;52.124;5.416;2024-02-15T05:51:22;101531.03;;;10.78;100.00
76866;BME280;66647;52.124;5.416;2024-02-15T05:53:49;101537.34;;;10.79;100.00
76866;BME280;66647;52.124;5.416;2024-02-15T05:56:16;101566.41;;;10.80;100.00
76866;BME280;66647;52.124;5.416;2024-02-15T05:58:43;101569.13;;;10.80;100.00
76866;BME280;66647;52.124;5.416;2024-02-15T06:01:10;101568.81;;;10.82;100.00
76866;BME280;66647;52.124;5.416;2024-02-15T06:03:39;101561.41;;;10.82;100.00
76866;BME280;66647;52.124;5.416;2024-02-15T06:06:08;101564.97;;;10.83;100.00
76866;BME280;66647;52.124;5.416;2024-02-15T06:08:36;101575.94;;;10.83;100.00
76866;BME280;66647;52.124;5.416;2024-02-15T06:11:03;101568.03;;;10.81;100.00
76866;BME280;66647;52.124;5.416;2024-02-15T06:13:31;101574.31;;;10.82;100.00
76866;BME280;66647;52.124;5.416;2024-02-15T06:15:58;101569.66;;;10.82;100.00
76866;BME280;66647;52.124;5.416;2024-02-15T06:18:26;101563.34;;;10.82;100.00
76866;BME280;66647;52.124;5.416;2024-02-15T06:21:00;101577.88;;;10.82;100.00
76866;BME280;66647;52.124;5.416;2024-02-15T06:23:28;101572.06;;;10.84;100.00
76866;BME280;66647;52.124;5.416;2024-02-15T06:25:56;101579.81;;;10.82;100.00
76866;BME280;66647;52.124;5.416;2024-02-15T06:28:25;101592.41;;;10.83;100.00
76866;BME280;66647;52.124;5.416;2024-02-15T06:31:11;101589.34;;;10.84;100.00
76866;BME280;66647;52.124;5.416;2024-02-15T06:33:56;101589.34;;;10.84;100.00
76866;BME280;66647;52.124;5.416;2024-02-15T06:36:56;101583.06;;;10.84;100.00
76866;BME280;66647;52.124;5.416;2024-02-15T06:39:41;101578.69;;;10.83;100.00
76866;BME280;66647;52.124;5.416;2024-02-15T06:42:14;101575.94;;;10.83;100.00
76866;BME280;66647;52.124;5.416;2024-02-15T06:44:50;101583.06;;;10.84;100.00
76866;BME280;66647;52.124;5.416;2024-02-15T06:47:17;101573.69;;;10.85;100.00
76866;BME280;66647;52.124;5.416;2024-02-15T06:49:46;101563.53;;;10.85;100.00
76866;BME280;66647;52.124;5.416;2024-02-15T06:52:13;101569.03;;;10.85;100.00
76866;BME280;66647;52.124;5.416;2024-02-15T06:54:41;101565.47;;;10.85;100.00
76866;BME280;66647;52.124;5.416;2024-02-15T06:57:08;101565.47;;;10.85;100.00
76866;BME280;66647;52.124;5.416;2024-02-15T06:59:34;101554.19;;;10.86;100.00
76866;BME280;66647;52.124;5.416;2024-02-15T07:02:02;101556.94;;;10.86;100.00
76866;BME280;66647;52.124;5.416;2024-02-15T07:04:31;101565.97;;;10.87;100.00
76866;BME280;66647;52.124;5.416;2024-02-15T07:06:59;101564.03;;;10.87;100.00
76866;BME280;66647;52.124;5.416;2024-02-15T07:09:26;101570.66;;;10.86;100.00
76866;BME280;66647;52.124;5.416;2024-02-15T07:11:54;101569.53;;;10.87;100.00
76866;BME280;66647;52.124;5.416;2024-02-15T07:14:21;101573.09;;;10.88;100.00
76866;BME280;66647;52.124;5.416;2024-02-15T07:16:57;101587.31;;;10.90;100.00
76866;BME280;66647;52.124;5.416;2024-02-15T07:19:25;101587.63;;;10.88;100.00
76866;BME280;66647;52.124;5.416;2024-02-15T07:21:55;101592.78;;;10.90;100.00
76866;BME280;66647;52.124;5.416;2024-02-15T07:24:23;101566.16;;;10.90;100.00
76866;BME280;66647;52.124;5.416;2024-02-15T07:26:53;101574.41;;;10.90;100.00
76866;BME280;66647;52.124;5.416;2024-02-15T07:29:22;101577.97;;;10.91;100.00
76866;BME280;66647;52.124;5.416;2024-02-15T07:31:51;101588.13;;;10.90;100.00
76866;BME280;66647;52.124;5.416;2024-02-15T07:34:18;101603.47;;;10.91;100.00
76866;BME280;66647;52.124;5.416;2024-02-15T07:39:55;101618.81;;;10.92;100.00
76866;BME280;66647;52.124;5.416;2024-02-15T07:42:22;101622.38;;;10.93;100.00
76866;BME280;66647;52.124;5.416;2024-02-15T07:44:52;101618.81;;;10.92;100.00
76866;BME280;66647;52.124;5.416;2024-02-15T07:47:21;101574.91;;;10.92;100.00
76866;BME280;66647;52.124;5.416;2024-02-15T07:49:50;101607.03;;;10.92;100.00
76866;BME280;66647;52.124;5.416;2024-02-15T07:52:22;101617.19;;;10.91;100.00
76866;BME280;66647;52.124;5.416;2024-02-15T07:55:37;101596.03;;;10.92;100.00
76866;BME280;66647;52.124;5.416;2024-02-15T07:58:28;101605.41;;;10.91;100.00
76866;BME280;66647;52.124;5.416;2024-02-15T08:01:01;101621.84;;;10.91;100.00
76866;BME280;66647;52.124;5.416;2024-02-15T08:18:42;101581.31;;;10.88;100.00
76866;BME280;66647;52.124;5.416;2024-02-15T08:21:12;101581.81;;;10.90;100.00
76866;BME280;66647;52.124;5.416;2024-02-15T08:24:03;101570.03;;;10.89;100.00
76866;BME280;66647;52.124;5.416;2024-02-15T08:26:35;101571.66;;;10.90;100.00
76866;BME280;66647;52.124;5.416;2024-02-15T08:29:15;101570.53;;;10.91;100.00
76866;BME280;66647;52.124;5.416;2024-02-15T08:35:56;101590.25;;;10.93;100.00
76866;BME280;66647;52.124;5.416;2024-02-15T08:39:24;101591.88;;;10.94;100.00
76866;BME280;66647;52.124;5.416;2024-02-15T08:42:12;101582.50;;;10.95;100.00
76866;BME280;66647;52.124;5.416;2024-02-15T08:45:30;101565.44;;;10.98;100.00
76866;BME280;66647;52.124;5.416;2024-02-15T08:49:03;101563.50;;;10.99;100.00
76866;BME280;66647;52.124;5.416;2024-02-15T09:09:24;101542.72;;;11.06;100.00
76866;BME280;66647;52.124;5.416;2024-02-15T09:12:01;101549.81;;;11.07;100.00
76866;BME280;66647;52.124;5.416;2024-02-15T09:18:36;101559.38;;;11.10;100.00
76866;BME280;66647;52.124;5.416;2024-02-15T09:21:04;101557.75;;;11.09;100.00
76866;BME280;66647;52.124;5.416;2024-02-15T09:23:31;101555.81;;;11.09;100.00
76866;BME280;66647;52.124;5.416;2024-02-15T09:25:59;101548.38;;;11.10;100.00
76866;BME280;66647;52.124;5.416;2024-02-15T09:28:25;101559.06;;;11.11;100.00
76866;BME280;66647;52.124;5.416;2024-02-15T09:30:53;101552.44;;;11.13;100.00
76866;BME280;66647;52.124;5.416;2024-02-15T09:33:26;101553.75;;;11.15;100.00
76866;BME280;66647;52.124;5.416;2024-02-15T09:35:55;101548.28;;;11.15;100.00
76866;BME280;66647;52.124;5.416;2024-02-15T09:38:22;101547.16;;;11.16;100.00
76866;BME280;66647;52.124;5.416;2024-02-15T09:40:49;101552.31;;;11.18;100.00
76866;BME280;66647;52.124;5.416;2024-02-15T09:43:22;101550.38;;;11.18;100.00
76866;BME280;66647;52.124;5.416;2024-02-15T09:45:52;101556.69;;;11.19;100.00
76866;BME280;66647;52.124;5.416;2024-02-15T09:48:19;101552.31;;;11.18;100.00
76866;BME280;66647;52.124;5.416;2024-02-15T09:50:52;101553.63;;;11.20;100.00
76866;BME280;66647;52.124;5.416;2024-02-15T09:53:31;101558.50;;;11.23;100.00
76866;BME280;66647;52.124;5.416;2024-02-15T09:55:59;101556.25;;;11.25;100.00
76866;BME280;66647;52.124;5.416;2024-02-15T09:58:30;101559.50;;;11.27;100.00
76866;BME280;66647;52.124;5.416;2024-02-15T10:01:11;101558.38;;;11.28;100.00
76866;BME280;66647;52.124;5.416;2024-02-15T10:04:32;101552.09;;;11.28;100.00
76866;BME280;66647;52.124;5.416;2024-02-15T10:11:13;101561.13;;;11.28;100.00
76866;BME280;66647;52.124;5.416;2024-02-15T10:18:05;101567.63;;;11.32;100.00
76866;BME280;66647;52.124;5.416;2024-02-15T10:21:05;101561.50;;;11.35;100.00
76866;BME280;66647;52.124;5.416;2024-02-15T10:27:13;101562.34;;;11.44;100.00
76866;BME280;66647;52.124;5.416;2024-02-15T10:29:40;101563.34;;;11.49;100.00
76866;BME280;66647;52.124;5.416;2024-02-15T10:32:08;101563.84;;;11.51;100.00
76866;BME280;66647;52.124;5.416;2024-02-15T10:34:43;101564.97;;;11.50;100.00
76866;BME280;66647;52.124;5.416;2024-02-15T10:37:13;101562.09;;;11.55;100.00
76866;BME280;66647;52.124;5.416;2024-02-15T10:39:40;101565.34;;;11.57;100.00
76866;BME280;66647;52.124;5.416;2024-02-15T10:42:07;101561.47;;;11.58;100.00
76866;BME280;66647;52.124;5.416;2024-02-15T10:44:38;101560.66;;;11.57;100.00
76866;BME280;66647;52.124;5.416;2024-02-15T10:47:07;101561.66;;;11.61;100.00
76866;BME280;66647;52.124;5.416;2024-02-15T10:49:35;101557.97;;;11.66;100.00
76866;BME280;66647;52.124;5.416;2024-02-15T10:52:04;101550.69;;;11.70;100.00
76866;BME280;66647;52.124;5.416;2024-02-15T10:57:11;101548.81;;;11.79;100.00
76866;BME280;66647;52.124;5.416;2024-02-15T10:59:55;101548.38;;;11.86;100.00
76866;BME280;66647;52.124;5.416;2024-02-15T11:11:13;101544.22;;;12.05;100.00
76866;BME280;66647;52.124;5.416;2024-02-15T11:13:41;101540.97;;;12.03;100.00
76866;BME280;66647;52.124;5.416;2024-02-15T11:22:10;101543.09;;;12.06;100.00
76866;BME280;66647;52.124;5.416;2024-02-15T11:24:46;101541.47;;;12.05;100.00
76866;BME280;66647;52.124;5.416;2024-02-15T11:27:35;101538.22;;;12.03;100.00
76866;BME280;66647;52.124;5.416;2024-02-15T11:30:06;101540.66;;;12.05;100.00
76866;BME280;66647;52.124;5.416;2024-02-15T11:32:47;101534.84;;;12.06;100.00
76866;BME280;66647;52.124;5.416;2024-02-15T11:35:21;101533.09;;;12.10;100.00
76866;BME280;66647;52.124;5.416;2024-02-15T11:37:56;101531.97;;;12.11;100.00
76866;BME280;66647;52.124;5.416;2024-02-15T11:41:22;101530.34;;;12.10;100.00
76866;BME280;66647;52.124;5.416;2024-02-15T11:43:51;101524.53;;;12.12;100.00
76866;BME280;66647;52.124;5.416;2024-02-15T11:46:31;101521.78;;;12.12;100.00
76866;BME280;66647;52.124;5.416;2024-02-15T11:48:59;101514.34;;;12.13;100.00
76866;BME280;66647;52.124;5.416;2024-02-15T11:51:31;101516.94;;;12.18;100.00
76866;BME280;66647;52.124;5.416;2024-02-15T11:54:09;101510.31;;;12.19;100.00
76866;BME280;66647;52.124;5.416;2024-02-15T11:56:56;101510.31;;;12.19;100.00
76866;BME280;66647;52.124;5.416;2024-02-15T11:59:43;101512.41;;;12.22;100.00
76866;BME280;66647;52.124;5.416;2024-02-15T12:02:31;101509.03;;;12.25;100.00
76866;BME280;66647;52.124;5.416;2024-02-15T12:05:17;101506.78;;;12.27;100.00
76866;BME280;66647;52.124;5.416;2024-02-15T12:08:06;101510.16;;;12.24;100.00
76866;BME280;66647;52.124;5.416;2024-02-15T12:11:00;101506.94;;;12.22;100.00
76866;BME280;66647;52.124;5.416;2024-02-15T12:13:52;101498.84;;;12.25;100.00
76866;BME280;66647;52.124;5.416;2024-02-15T12:16:37;101495.94;;;12.30;100.00
76866;BME280;66647;52.124;5.416;2024-02-15T12:19:23;101488.19;;;12.32;100.00
76866;BME280;66647;52.124;5.416;2024-02-15T12:21:50;101486.72;;;12.35;100.00
76866;BME280;66647;52.124;5.416;2024-02-15T12:24:18;101480.25;;;12.39;100.00
76866;BME280;66647;52.124;5.416;2024-02-15T12:26:48;101477.66;;;12.43;100.00
76866;BME280;66647;52.124;5.416;2024-02-15T12:29:17;101467.97;;;12.45;100.00
76866;BME280;66647;52.124;5.416;2024-02-15T12:31:44;101466.66;;;12.52;100.00
76866;BME280;66647;52.124;5.416;2024-02-15T12:34:11;101465.84;;;12.51;100.00
76866;BME280;66647;52.124;5.416;2024-02-15T12:36:41;101462.94;;;12.56;100.00
76866;BME280;66647;52.124;5.416;2024-02-15T12:39:09;101446.94;;;12.58;100.00
76866;BME280;66647;52.124;5.416;2024-02-15T12:41:40;101451.63;;;12.66;100.00
76866;BME280;66647;52.124;5.416;2024-02-15T12:44:16;101447.22;;;12.74;100.00
76866;BME280;66647;52.124;5.416;2024-02-15T12:47:04;101449.97;;;12.83;100.00
76866;BME280;66647;52.124;5.416;2024-02-15T12:49:33;101446.25;;;12.87;100.00
76866;BME280;66647;52.124;5.416;2024-02-15T12:55:07;101432.25;;;13.09;100.00
76866;BME280;66647;52.124;5.416;2024-02-15T12:57:34;101433.41;;;13.17;100.00
76866;BME280;66647;52.124;5.416;2024-02-15T13:00:03;101432.06;;;13.32;100.00
76866;BME280;66647;52.124;5.416;2024-02-15T13:02:37;101431.34;;;13.43;100.00
76866;BME280;66647;52.124;5.416;2024-02-15T13:05:05;101432.13;;;13.53;100.00
76866;BME280;66647;52.124;5.416;2024-02-15T13:07:36;101428.31;;;13.66;100.00
76866;BME280;66647;52.124;5.416;2024-02-15T13:10:06;101422.00;;;13.65;100.00
76866;BME280;66647;52.124;5.416;2024-02-15T13:13:01;101414.09;;;13.64;100.00
76866;BME280;66647;52.124;5.416;2024-02-15T13:15:30;101421.19;;;13.65;100.00
76866;BME280;66647;52.124;5.416;2024-02-15T13:18:01;101420.25;;;13.61;100.00
76866;BME280;66647;52.124;5.416;2024-02-15T13:20:32;101415.56;;;13.61;100.00
76866;BME280;66647;52.124;5.416;2024-02-15T13:23:00;101411.78;;;13.66;100.00
76866;BME280;66647;52.124;5.416;2024-02-15T13:25:29;101403.34;;;13.71;100.00
76866;BME280;66647;52.124;5.416;2024-02-15T13:28:01;101405.22;;;13.79;100.00
76866;BME280;66647;52.124;5.416;2024-02-15T13:30:32;101402.75;;;13.86;100.00
76866;BME280;66647;52.124;5.416;2024-02-15T13:32:58;101388.16;;;13.86;100.00
76866;BME280;66647;52.124;5.416;2024-02-15T13:35:28;101385.75;;;13.84;100.00
76866;BME280;66647;52.124;5.416;2024-02-15T13:37:56;101381.72;;;13.82;100.00
76866;BME280;66647;52.124;5.416;2024-02-15T13:40:25;101375.38;;;13.81;100.00
76866;BME280;66647;52.124;5.416;2024-02-15T13:42:58;101379.28;;;13.80;100.00
76866;BME280;66647;52.124;5.416;2024-02-15T13:45:31;101365.56;;;13.71;100.00
76866;BME280;66647;52.124;5.416;2024-02-15T13:48:05;101374.09;;;13.78;100.00
76866;BME280;66647;52.124;5.416;2024-02-15T13:51:42;101368.88;;;13.86;100.00
76866;BME280;66647;52.124;5.416;2024-02-15T13:54:10;101375.34;;;13.90;100.00
76866;BME280;66647;52.124;5.416;2024-02-15T13:56:40;101367.53;;;13.92;100.00
76866;BME280;66647;52.124;5.416;2024-02-15T13:59:08;101369.81;;;13.90;100.00
76866;BME280;66647;52.124;5.416;2024-02-15T14:01:53;101358.31;;;13.88;100.00
76866;BME280;66647;52.124;5.416;2024-02-15T14:04:20;101365.66;;;13.84;100.00
76866;BME280;66647;52.124;5.416;2024-02-15T14:06:47;101357.66;;;13.91;100.00
76866;BME280;66647;52.124;5.416;2024-02-15T14:09:18;101363.16;;;13.91;100.00
76866;BME280;66647;52.124;5.416;2024-02-15T14:12:12;101356.38;;;13.88;100.00
76866;BME280;66647;52.124;5.416;2024-02-15T14:18:18;101334.31;;;13.88;100.00
76866;BME280;66647;52.124;5.416;2024-02-15T14:20:46;101339.81;;;13.88;100.00
76866;BME280;66647;52.124;5.416;2024-02-15T14:23:19;101338.06;;;13.84;100.00
76866;BME280;66647;52.124;5.416;2024-02-15T14:25:45;101341.34;;;13.77;100.00